Petersburg, AK (99833)

2:36 PM AKST on January 17, 2017 (GMT -0900)
Johnson Petersburg | | Change Station

Elev 105 ft 56.80 °N, 132.95 °W | Updated 20 minutes ago

Overcast
Overcast
37 °F
Feels Like 37 °F
N
0
Wind Variable Wind from North

Today
High -- | Low -- °F
--% Chance of Precip.
Yesterday
High -- | Low -- °F
Precip. -- in
Pressure 29.04 in
Visibility 2.0 miles
Clouds Scattered Clouds 300 ft
Mostly Cloudy 2100 ft
Overcast 3500 ft
Dew Point 36 °F
Humidity 93%
Rainfall 0.01 in
Snow Depth Not available.
8:14 AM 3:50 PM
Waning Gibbous, 68% visible
METAR PAPG 172316Z 00000KT 2SM SCT003 BKN021 OVC035 03/02 A2904 RMK AO1 -RA BR RAB20 P0001
Pressure 29.04 in
Visibility 2.0 miles
Clouds Scattered Clouds 300 ft
Mostly Cloudy 2100 ft
Overcast 3500 ft
Dew Point 36 °F
Humidity 93%
Rainfall 0.01 in
Snow Depth Not available.
8:14 AM 3:50 PM
Waning Gibbous, 68% visible
METAR PAPG 172316Z 00000KT 2SM SCT003 BKN021 OVC035 03/02 A2904 RMK AO1 -RA BR RAB20 P0001

Get Your Daily Forecast Email!

Thanks for signing up!

Be on the lookout for a verification email in your inbox.

You'll start receiving the daily forecast at 8 AM.

×

10-Day Weather Forecast

Almanac

Astronomy

Jan. 17, 2017 Rise Set
Actual Time
Civil Twilight
Nautical Twilight
Astronomical Twilight
Moon
Length of Visible Light
Length of Day
Tomorrow will be .
, % of the Moon is Illuminated

Today's Extremes

State Highs State Lows

Community

WunderPhotos

Upload Photos

1,962,540 photos uploaded!

WunderBlog® & News

Nearby

Air Quality

  Air Quality AQ Index Pollutant
Not available.

Snow Depth

Station Depth Elevation

Earthquake Activity

City Distance Mag. Time & Date
Minimum magnitude displayed is 2.5.

Coastal Water Temperatures

Place Temperature

Stations

Nearby Weather Stations

Station Location Temp. Windchill Dew Point Humidity Wind Precip. Elev Updated Type
                   

Watches & Warnings

There are currently no watches in effect.